Time;durP1;ratioP1;P1;durP2;ratioP2;P2;SDS_P1;SDS_P2;PMS_P1;PMS_P2;Temp;Humidity;BMP_temperature;BMP_pressure;BME280_temperature;BME280_humidity;BME280_pressure;Samples;Min_cycle;Max_cycle;Signal;HPM_P1;HPM_P2
2023/05/05 00:01:43;;;;;;;7.15;5.18;;;;;;;11.36;60.86;94205.06;4974831;28;20388;-77
2023/05/05 00:04:08;;;;;;;5.68;4.57;;;;;;;11.31;61.36;94218.53;4976911;28;20064;-78
2023/05/05 00:06:34;;;;;;;4.68;3.95;;;;;;;11.38;61.02;94210.88;4975422;28;20052;-78
2023/05/05 00:09:00;;;;;;;5.57;4.45;;;;;;;11.27;61.04;94204.25;4976860;28;20149;-78
2023/05/05 00:11:25;;;;;;;5.05;4.20;;;;;;;11.37;61.10;94220.75;4976369;28;20035;-78
2023/05/05 00:13:50;;;;;;;4.35;3.95;;;;;;;11.40;61.42;94219.34;4978069;28;20046;-80
2023/05/05 00:16:16;;;;;;;4.45;3.95;;;;;;;11.29;61.32;94200.22;4975839;28;20073;-76
2023/05/05 00:18:42;;;;;;;7.53;4.47;;;;;;;11.28;61.88;94217.28;4977127;28;20485;-78
2023/05/05 00:21:07;;;;;;;9.25;3.85;;;;;;;11.28;61.55;94200.50;4976364;28;20152;-77
2023/05/05 00:23:32;;;;;;;4.90;4.15;;;;;;;11.34;61.29;94216.06;4976845;28;20031;-77
2023/05/05 00:25:58;;;;;;;4.78;4.15;;;;;;;11.21;61.72;94203.59;4972814;28;20061;-77
2023/05/05 00:28:23;;;;;;;8.98;4.75;;;;;;;11.04;62.00;94212.31;4975573;28;20138;-77
2023/05/05 00:30:48;;;;;;;6.30;4.18;;;;;;;11.04;62.01;94217.63;4978391;28;20577;-76
2023/05/05 00:33:14;;;;;;;4.55;3.83;;;;;;;10.95;62.54;94222.13;4976529;28;20030;-78
2023/05/05 00:35:39;;;;;;;6.95;4.95;;;;;;;10.93;62.68;94205.69;4976925;28;20041;-77
2023/05/05 00:38:05;;;;;;;4.60;4.05;;;;;;;11.02;62.00;94198.53;4975868;28;20493;-80
2023/05/05 00:40:31;;;;;;;7.65;4.03;;;;;;;11.05;62.28;94219.19;4973968;28;20038;-79
2023/05/05 00:42:58;;;;;;;7.10;4.57;;;;;;;11.02;62.30;94217.16;4973815;28;20053;-80
2023/05/05 00:45:24;;;;;;;6.07;4.18;;;;;;;11.03;62.28;94226.72;4975784;28;20096;-80
2023/05/05 00:47:52;;;;;;;4.45;4.05;;;;;;;10.94;62.39;94201.94;4973794;28;20080;-79
2023/05/05 00:50:21;;;;;;;5.30;4.80;;;;;;;10.74;61.74;94176.63;4974642;28;20030;-78
2023/05/05 00:52:47;;;;;;;8.52;4.60;;;;;;;10.97;60.91;94201.31;4971093;28;20046;-78
2023/05/05 00:55:12;;;;;;;5.60;5.03;;;;;;;11.06;60.36;94210.13;4970207;28;20164;-79
2023/05/05 00:57:38;;;;;;;5.88;3.75;;;;;;;11.03;60.45;94199.31;4975733;28;20077;-78
2023/05/05 01:00:08;;;;;;;5.90;4.60;;;;;;;11.07;60.66;94216.22;4975676;28;20165;-79
2023/05/05 01:02:34;;;;;;;6.18;4.13;;;;;;;10.84;60.00;94191.53;4974771;28;20360;-79
2023/05/05 01:05:00;;;;;;;5.35;4.28;;;;;;;10.95;59.96;94218.69;4978985;28;20033;-78
2023/05/05 01:07:43;;;;;;;5.47;3.90;;;;;;;10.73;61.21;94206.97;4972962;28;20038;-79
2023/05/05 01:10:18;;;;;;;4.82;4.00;;;;;;;10.78;60.84;94210.59;4984307;28;20165;-80
2023/05/05 01:13:00;;;;;;;7.22;3.38;;;;;;;10.54;61.63;94194.94;4975754;28;20046;-80
2023/05/05 01:15:35;;;;;;;3.42;2.92;;;;;;;10.60;61.87;94213.16;4975559;28;20043;-78
2023/05/05 01:18:04;;;;;;;4.75;4.15;;;;;;;10.56;62.54;94217.47;4974191;28;20165;-78
2023/05/05 01:20:35;;;;;;;4.15;3.67;;;;;;;10.59;62.20;94213.44;4977654;28;20041;-77
2023/05/05 01:23:05;;;;;;;5.50;3.75;;;;;;;10.54;61.96;94208.25;4989173;28;20068;-77
2023/05/05 01:25:43;;;;;;;4.22;3.78;;;;;;;10.48;62.04;94206.78;4975742;28;20546;-79
2023/05/05 01:28:25;;;;;;;4.10;3.67;;;;;;;10.53;61.86;94212.00;4983572;28;20056;-79
2023/05/05 01:31:14;;;;;;;4.57;4.18;;;;;;;10.50;61.96;94202.75;4974475;28;20034;-78
2023/05/05 01:33:54;;;;;;;5.65;3.97;;;;;;;10.38;62.30;94193.75;4975885;28;20367;-78
2023/05/05 01:36:30;;;;;;;6.28;3.67;;;;;;;10.47;61.67;94198.03;4973744;28;20035;-78
2023/05/05 01:38:59;;;;;;;5.10;4.20;;;;;;;10.50;62.04;94204.63;4976057;28;20064;-79
2023/05/05 01:41:40;;;;;;;4.40;4.00;;;;;;;10.20;62.42;94168.88;4975726;28;20512;-78
2023/05/05 01:44:08;;;;;;;4.35;3.88;;;;;;;10.38;62.19;94183.88;4974529;28;20286;-77
2023/05/05 01:46:35;;;;;;;6.55;3.80;;;;;;;10.44;61.91;94189.88;4975460;28;20041;-77
2023/05/05 01:49:02;;;;;;;6.22;4.60;;;;;;;10.54;62.13;94197.59;4977680;28;20479;-77
2023/05/05 01:51:28;;;;;;;5.55;3.85;;;;;;;10.54;62.11;94192.28;4976017;28;20034;-77
2023/05/05 01:53:58;;;;;;;5.32;4.55;;;;;;;10.65;61.77;94190.97;4975926;28;20035;-79
2023/05/05 01:56:25;;;;;;;6.35;4.55;;;;;;;10.70;61.08;94180.19;4973987;28;20018;-78
2023/05/05 01:58:53;;;;;;;5.75;3.85;;;;;;;10.61;61.53;94187.34;4965426;28;20140;-79
2023/05/05 02:01:24;;;;;;;4.70;4.30;;;;;;;10.58;61.96;94196.69;4974099;28;20038;-78
2023/05/05 02:03:53;;;;;;;6.07;3.63;;;;;;;10.49;61.56;94176.47;4974783;28;20058;-78
2023/05/05 02:06:20;;;;;;;5.65;3.88;;;;;;;10.59;62.14;94184.19;4974678;28;20117;-77
2023/05/05 02:08:48;;;;;;;5.20;3.70;;;;;;;10.49;62.55;94168.47;4971762;28;20125;-78
2023/05/05 02:11:14;;;;;;;4.63;3.92;;;;;;;10.59;62.45;94186.84;4976265;28;20030;-78
2023/05/05 02:13:41;;;;;;;7.97;4.75;;;;;;;10.58;61.80;94182.63;4975154;28;20042;-78
2023/05/05 02:16:08;;;;;;;7.25;5.07;;;;;;;10.44;61.43;94161.41;4976267;28;20046;-78
2023/05/05 02:18:35;;;;;;;6.22;4.60;;;;;;;10.56;62.52;94185.56;4976635;28;20038;-79
2023/05/05 02:21:01;;;;;;;5.40;4.72;;;;;;;10.28;62.17;94134.38;4973544;28;20030;-77
2023/05/05 02:23:28;;;;;;;5.00;4.10;;;;;;;10.52;61.70;94170.53;4975069;28;20100;-78
2023/05/05 02:26:06;;;;;;;5.00;4.43;;;;;;;10.64;61.93;94179.53;4973517;28;20794;-77
2023/05/05 02:29:01;;;;;;;5.05;4.15;;;;;;;10.73;61.28;94187.56;4974035;28;20109;-79
2023/05/05 02:31:28;;;;;;;6.68;4.38;;;;;;;10.68;61.27;94185.81;4973445;28;20508;-78
2023/05/05 02:33:56;;;;;;;6.72;5.10;;;;;;;10.45;62.71;94173.63;4972547;28;20454;-79
2023/05/05 02:36:26;;;;;;;5.63;4.95;;;;;;;10.58;62.56;94190.59;4975195;28;20037;-78
2023/05/05 02:39:01;;;;;;;5.55;4.60;;;;;;;10.54;62.71;94186.97;4990071;28;20160;-78
2023/05/05 02:41:29;;;;;;;6.70;5.68;;;;;;;10.61;62.52;94195.31;4972542;28;20068;-77
2023/05/05 02:43:57;;;;;;;7.15;4.85;;;;;;;10.69;62.91;94184.72;4976309;28;20315;-76
2023/05/05 02:46:22;;;;;;;5.22;4.70;;;;;;;10.68;62.61;94177.84;4975784;28;20092;-78
2023/05/05 02:48:47;;;;;;;5.60;4.85;;;;;;;10.75;62.19;94188.06;4972743;28;20086;-78
2023/05/05 02:51:13;;;;;;;5.28;4.47;;;;;;;10.74;62.64;94186.47;4972850;28;20034;-79
2023/05/05 02:53:38;;;;;;;5.82;4.90;;;;;;;10.75;62.31;94188.06;4970501;28;20058;-79
2023/05/05 02:56:32;;;;;;;6.82;5.05;;;;;;;10.72;62.92;94183.31;4975974;28;20145;-78
2023/05/05 02:59:32;;;;;;;6.78;5.20;;;;;;;10.78;63.05;94186.66;4973367;28;20041;-78
2023/05/05 03:02:13;;;;;;;5.95;4.68;;;;;;;10.81;62.44;94181.50;4974182;28;20363;-78
2023/05/05 03:04:41;;;;;;;5.55;4.88;;;;;;;10.82;62.50;94180.41;4974605;28;20050;-80
2023/05/05 03:07:29;;;;;;;4.65;4.20;;;;;;;10.87;62.78;94185.59;4985743;28;20042;-78
2023/05/05 03:10:05;;;;;;;6.45;5.13;;;;;;;10.97;62.00;94179.22;4970647;28;20115;-80
2023/05/05 03:12:37;;;;;;;6.35;4.32;;;;;;;11.02;62.06;94177.22;4973670;28;20495;-79
2023/05/05 03:15:06;;;;;;;5.05;4.05;;;;;;;10.89;62.34;94167.47;4964351;28;20050;-79
2023/05/05 03:17:33;;;;;;;6.55;4.55;;;;;;;10.86;62.62;94173.38;4972621;28;20072;-78
2023/05/05 03:19:59;;;;;;;5.80;3.80;;;;;;;10.75;62.69;94158.78;4966439;28;20023;-78
2023/05/05 03:22:26;;;;;;;4.72;3.45;;;;;;;10.77;63.05;94167.22;4970406;28;20054;-78
2023/05/05 03:24:52;;;;;;;6.38;3.33;;;;;;;10.93;61.65;94162.31;4990503;28;20146;-79
2023/05/05 03:27:19;;;;;;;4.47;3.40;;;;;;;10.95;61.69;94179.56;4972280;28;20054;-78
2023/05/05 03:29:44;;;;;;;3.78;3.47;;;;;;;10.95;61.97;94184.88;4973543;28;20580;-79
2023/05/05 03:32:10;;;;;;;3.60;3.17;;;;;;;10.90;61.11;94169.03;4976420;28;20038;-79
2023/05/05 03:34:36;;;;;;;3.97;2.80;;;;;;;10.86;60.68;94164.59;4970505;28;20092;-77
2023/05/05 03:37:02;;;;;;;3.25;2.92;;;;;;;10.93;60.53;94173.75;4973945;28;20037;-77
2023/05/05 03:39:27;;;;;;;2.90;2.60;;;;;;;11.04;60.66;94180.38;4972352;28;20039;-79
2023/05/05 03:41:52;;;;;;;3.25;2.95;;;;;;;11.04;60.35;94175.06;4973870;28;20468;-79
2023/05/05 03:44:18;;;;;;;3.20;2.90;;;;;;;10.95;60.40;94155.59;4970757;28;20034;-79
2023/05/05 03:46:43;;;;;;;5.45;2.97;;;;;;;11.04;60.07;94177.72;4974599;28;20047;-79
2023/05/05 03:49:09;;;;;;;3.45;2.95;;;;;;;10.98;60.02;94165.63;4971332;28;20672;-79
2023/05/05 03:51:35;;;;;;;3.70;2.63;;;;;;;11.07;59.55;94169.09;4972678;28;20042;-77
2023/05/05 03:54:00;;;;;;;2.78;2.40;;;;;;;10.78;58.71;94115.59;4973396;28;20513;-79
2023/05/05 03:56:26;;;;;;;3.03;2.22;;;;;;;11.03;58.68;94149.53;4974354;28;20026;-79
2023/05/05 03:58:51;;;;;;;6.45;3.67;;;;;;;11.16;58.95;94172.59;4975695;28;20325;-78
2023/05/05 04:01:17;;;;;;;3.47;2.90;;;;;;;11.05;59.05;94171.28;4974902;28;20092;-79
2023/05/05 04:03:42;;;;;;;2.75;2.55;;;;;;;11.06;58.86;94178.19;4977045;28;20132;-78
2023/05/05 04:06:07;;;;;;;5.45;2.67;;;;;;;11.01;59.07;94165.00;4976110;28;20057;-78
2023/05/05 04:08:33;;;;;;;5.07;3.20;;;;;;;11.03;59.16;94162.81;4976541;28;20113;-79
2023/05/05 04:11:01;;;;;;;3.15;2.85;;;;;;;11.12;58.22;94182.28;4977040;28;20034;-78
2023/05/05 04:13:28;;;;;;;3.42;3.13;;;;;;;11.08;59.23;94185.88;4975813;28;20054;-77
2023/05/05 04:15:54;;;;;;;4.43;3.40;;;;;;;10.96;60.17;94186.41;4990748;28;20381;-78
2023/05/05 04:18:19;;;;;;;3.53;3.22;;;;;;;10.92;60.57;94198.00;4976792;28;20086;-79
2023/05/05 04:20:45;;;;;;;3.40;2.60;;;;;;;10.90;61.08;94203.63;4974456;28;20125;-79
2023/05/05 04:23:11;;;;;;;7.40;4.32;;;;;;;10.94;60.09;94174.53;4980470;28;20030;-80
2023/05/05 04:25:36;;;;;;;11.85;5.78;;;;;;;11.04;60.44;94201.66;4975890;28;20046;-79
2023/05/05 04:28:01;;;;;;;14.18;5.55;;;;;;;10.98;61.04;94207.41;4967211;28;20041;-79
2023/05/05 04:30:27;;;;;;;7.50;6.25;;;;;;;11.01;61.16;94206.81;4977835;28;20073;-79
2023/05/05 04:32:52;;;;;;;7.38;5.68;;;;;;;10.92;61.17;94190.78;4974453;28;20443;-78
2023/05/05 04:35:17;;;;;;;7.63;5.53;;;;;;;11.07;61.39;94218.88;4977297;28;20548;-76
2023/05/05 04:37:43;;;;;;;8.48;6.47;;;;;;;11.12;60.53;94192.94;4972069;28;20034;-78
2023/05/05 04:40:09;;;;;;;9.25;5.60;;;;;;;11.05;60.50;94207.78;4977249;28;20087;-76
2023/05/05 04:42:35;;;;;;;9.70;6.50;;;;;;;10.97;59.74;94217.28;4974871;28;20078;-76
2023/05/05 04:45:00;;;;;;;7.53;6.25;;;;;;;11.07;59.97;94216.22;4977894;28;20556;-77
2023/05/05 04:47:26;;;;;;;11.70;6.13;;;;;;;11.04;59.76;94198.22;4975261;28;20836;-77
2023/05/05 04:49:53;;;;;;;6.03;5.38;;;;;;;10.99;59.96;94190.38;4976395;28;20421;-78
2023/05/05 04:52:19;;;;;;;9.25;5.85;;;;;;;11.03;60.56;94218.72;4974073;28;20080;-78
2023/05/05 04:54:44;;;;;;;7.40;6.10;;;;;;;10.99;59.62;94212.44;4973132;28;20181;-76
2023/05/05 04:57:09;;;;;;;7.18;5.82;;;;;;;10.99;60.15;94215.09;4975185;28;20502;-78
2023/05/05 04:59:36;;;;;;;7.43;6.07;;;;;;;11.01;59.98;94222.75;4977223;28;20081;-79
2023/05/05 05:02:02;;;;;;;8.60;6.18;;;;;;;11.02;59.83;94216.34;4976307;28;20022;-78
2023/05/05 05:04:27;;;;;;;8.38;6.88;;;;;;;10.83;60.57;94191.84;4974517;28;20626;-78
2023/05/05 05:06:52;;;;;;;11.35;6.60;;;;;;;11.12;59.43;94227.53;4972598;28;20073;-80
2023/05/05 05:09:18;;;;;;;10.93;5.80;;;;;;;11.05;59.16;94208.53;4974624;28;20124;-78
2023/05/05 05:11:43;;;;;;;7.00;6.10;;;;;;;10.92;60.66;94229.91;4971156;28;20118;-78
2023/05/05 05:14:08;;;;;;;9.35;6.75;;;;;;;10.79;61.76;94239.56;4975347;28;20042;-78
2023/05/05 05:16:35;;;;;;;6.05;4.45;;;;;;;10.95;61.05;94230.13;4977387;28;20505;-79
2023/05/05 05:19:00;;;;;;;5.30;4.75;;;;;;;10.91;60.96;94228.34;4974623;28;20397;-78
2023/05/05 05:21:26;;;;;;;5.05;4.45;;;;;;;10.85;61.18;94206.44;4975798;28;20040;-79
2023/05/05 05:23:52;;;;;;;6.75;3.90;;;;;;;11.02;61.11;94229.66;4971709;28;20049;-80
2023/05/05 05:26:17;;;;;;;6.00;3.97;;;;;;;10.55;61.46;94231.09;4974253;28;20033;-79
2023/05/05 05:28:43;;;;;;;7.72;4.10;;;;;;;10.56;62.15;94216.72;4971028;28;20034;-78
2023/05/05 05:31:08;;;;;;;3.92;2.95;;;;;;;10.64;61.21;94237.25;4972136;28;20041;-78
2023/05/05 05:33:33;;;;;;;3.90;2.83;;;;;;;10.78;60.87;94229.22;4976401;28;20098;-78
2023/05/05 05:35:59;;;;;;;2.60;2.40;;;;;;;10.87;60.78;94217.53;4972367;28;20041;-78
2023/05/05 05:38:24;;;;;;;4.93;2.17;;;;;;;11.29;59.90;94244.69;4976045;28;20018;-78
2023/05/05 05:40:49;;;;;;;3.13;2.33;;;;;;;11.23;58.96;94236.03;4974029;28;20030;-78
2023/05/05 05:43:15;;;;;;;4.47;2.25;;;;;;;10.78;59.46;94235.31;4975767;28;20038;-79
2023/05/05 05:45:40;;;;;;;6.13;2.53;;;;;;;10.77;59.46;94223.09;4979086;28;20456;-79
2023/05/05 05:48:06;;;;;;;3.13;1.83;;;;;;;11.09;58.16;94225.50;4975292;28;20053;-77
2023/05/05 05:50:31;;;;;;;4.20;2.00;;;;;;;11.11;58.73;94227.84;4975208;28;20131;-80
2023/05/05 05:52:56;;;;;;;1.92;1.67;;;;;;;11.24;57.65;94216.31;4974689;28;20025;-79
2023/05/05 05:55:22;;;;;;;2.22;2.00;;;;;;;10.98;58.98;94240.16;4973269;28;20066;-78
2023/05/05 05:57:47;;;;;;;3.38;2.10;;;;;;;10.48;60.95;94242.16;4977361;28;20030;-79
2023/05/05 06:00:14;;;;;;;5.00;2.75;;;;;;;9.55;63.86;94245.44;4965830;28;20516;-79
2023/05/05 06:02:40;;;;;;;3.97;2.75;;;;;;;8.82;66.24;94249.66;4972786;28;20047;-78
2023/05/05 06:05:06;;;;;;;3.67;2.80;;;;;;;9.41;66.23;94234.84;4973010;28;20042;-78
2023/05/05 06:07:31;;;;;;;6.68;2.67;;;;;;;10.25;62.34;94240.53;4963621;28;20049;-79
2023/05/05 06:09:57;;;;;;;3.35;2.70;;;;;;;10.58;60.94;94251.75;4969012;28;20913;-80
2023/05/05 06:12:22;;;;;;;4.05;2.13;;;;;;;10.55;59.52;94241.75;4964971;28;20315;-78
2023/05/05 06:14:47;;;;;;;6.93;2.53;;;;;;;10.39;59.66;94243.16;4972169;28;20515;-77
2023/05/05 06:17:13;;;;;;;2.83;2.15;;;;;;;10.32;61.38;94235.56;4973111;28;20545;-78
2023/05/05 06:19:39;;;;;;;3.53;2.47;;;;;;;10.82;60.08;94254.13;4969404;28;20050;-81
2023/05/05 06:22:05;;;;;;;2.60;2.30;;;;;;;11.11;58.74;94244.59;4973530;28;20038;-80
2023/05/05 06:24:31;;;;;;;2.38;2.00;;;;;;;11.27;57.55;94252.19;4973169;28;20042;-79
2023/05/05 06:26:58;;;;;;;1.80;1.65;;;;;;;11.25;56.92;94254.38;4970771;28;20187;-79
2023/05/05 06:29:24;;;;;;;3.20;2.20;;;;;;;11.10;58.82;94258.97;4973358;28;20084;-78
2023/05/05 06:31:50;;;;;;;2.70;1.90;;;;;;;11.15;57.93;94258.06;4972748;28;20018;-79
2023/05/05 06:34:15;;;;;;;3.13;2.80;;;;;;;11.00;58.11;94264.56;4971788;28;20382;-79
2023/05/05 06:36:41;;;;;;;3.28;1.70;;;;;;;10.95;58.13;94264.72;4970248;28;20621;-78
2023/05/05 06:39:06;;;;;;;3.08;2.03;;;;;;;11.10;58.38;94256.31;4971949;28;20050;-77
2023/05/05 06:41:32;;;;;;;3.03;2.20;;;;;;;10.85;58.56;94246.34;4973850;28;20036;-78
2023/05/05 06:43:57;;;;;;;3.35;1.83;;;;;;;11.04;58.46;94246.91;4974164;28;20117;-77
2023/05/05 06:46:22;;;;;;;3.13;2.38;;;;;;;11.00;59.03;94256.56;4973286;28;20344;-78
2023/05/05 06:48:48;;;;;;;8.27;2.20;;;;;;;10.65;60.08;94252.16;4973645;28;20587;-76
2023/05/05 06:51:14;;;;;;;2.53;1.90;;;;;;;10.61;60.19;94235.22;4972079;28;20065;-79
2023/05/05 06:53:40;;;;;;;3.80;1.60;;;;;;;10.15;61.87;94254.84;4971236;28;20042;-79
2023/05/05 06:56:05;;;;;;;1.70;1.52;;;;;;;9.93;62.29;94209.59;4975383;28;20413;-79
2023/05/05 06:58:31;;;;;;;5.97;2.10;;;;;;;10.56;61.82;94253.97;4973939;28;20030;-78
2023/05/05 07:00:56;;;;;;;2.38;1.60;;;;;;;10.77;60.34;94248.91;4974573;28;20525;-77
2023/05/05 07:03:21;;;;;;;2.78;1.70;;;;;;;10.58;60.33;94233.94;4977924;28;20130;-79
2023/05/05 07:05:47;;;;;;;3.42;2.42;;;;;;;11.18;58.52;94250.28;4974344;28;20042;-79
2023/05/05 07:08:12;;;;;;;2.50;1.80;;;;;;;11.28;58.96;94221.81;4984044;28;20161;-80
2023/05/05 07:10:38;;;;;;;2.78;1.98;;;;;;;11.30;58.48;94227.59;4976110;28;20304;-80
2023/05/05 07:13:03;;;;;;;1.80;1.58;;;;;;;11.76;57.21;94233.28;4971807;28;20820;-80
2023/05/05 07:15:28;;;;;;;2.38;2.17;;;;;;;11.27;58.85;94244.19;4975411;28;20034;-79
2023/05/05 07:17:54;;;;;;;2.35;2.15;;;;;;;11.40;59.47;94237.97;4972982;28;20127;-80
2023/05/05 07:20:19;;;;;;;5.45;2.22;;;;;;;10.60;60.64;94207.03;4975189;28;20208;-79
2023/05/05 07:22:45;;;;;;;3.13;2.20;;;;;;;10.51;60.90;94246.09;4973280;28;20034;-80
2023/05/05 07:25:10;;;;;;;4.93;2.92;;;;;;;10.94;60.77;94230.41;4975412;28;20479;-78
2023/05/05 07:27:36;;;;;;;2.90;2.45;;;;;;;11.45;59.71;94240.50;4972768;28;20042;-79
2023/05/05 07:30:02;;;;;;;3.42;2.03;;;;;;;11.65;59.15;94232.00;4977554;28;20580;-80
2023/05/05 07:32:28;;;;;;;3.42;2.78;;;;;;;11.06;60.45;94228.75;4981618;28;20018;-77
2023/05/05 07:34:53;;;;;;;2.97;2.38;;;;;;;11.49;60.97;94228.94;4975688;28;20454;-80
2023/05/05 07:37:18;;;;;;;4.03;2.47;;;;;;;12.06;60.30;94236.16;4977010;28;20042;-78
2023/05/05 07:39:46;;;;;;;3.05;2.17;;;;;;;12.25;57.71;94234.00;4978806;28;20060;-78
2023/05/05 07:42:11;;;;;;;4.65;2.22;;;;;;;12.13;56.11;94223.94;4977782;28;20050;-77
2023/05/05 07:44:37;;;;;;;2.55;2.00;;;;;;;11.90;57.74;94223.28;4976471;28;20022;-78
2023/05/05 07:47:05;;;;;;;4.32;2.38;;;;;;;11.95;57.76;94236.47;4981364;28;20041;-78
2023/05/05 07:49:31;;;;;;;4.03;2.30;;;;;;;11.65;58.25;94229.34;4976637;28;20153;-78
2023/05/05 07:51:57;;;;;;;3.28;2.20;;;;;;;11.35;60.36;94238.13;4978913;28;20076;-77
2023/05/05 07:54:23;;;;;;;3.80;2.85;;;;;;;11.52;58.46;94232.91;4975871;28;20329;-77
2023/05/05 07:56:48;;;;;;;5.30;2.78;;;;;;;11.95;57.22;94241.00;4977319;28;20038;-78
2023/05/05 07:59:13;;;;;;;5.57;3.42;;;;;;;11.77;57.08;94224.22;4978717;28;20026;-79
2023/05/05 08:01:39;;;;;;;4.28;2.33;;;;;;;12.22;55.01;94229.31;4976733;28;20524;-78
2023/05/05 08:04:04;;;;;;;3.97;2.22;;;;;;;12.20;56.75;94234.16;4978302;28;20046;-79
2023/05/05 08:06:30;;;;;;;4.07;2.85;;;;;;;11.86;58.21;94224.22;4979735;28;20085;-77
2023/05/05 08:08:58;;;;;;;3.60;2.85;;;;;;;11.43;56.60;94242.72;4974844;28;21710;-79
2023/05/05 08:11:24;;;;;;;3.33;2.80;;;;;;;11.77;56.04;94232.19;4977232;28;20381;-80
2023/05/05 08:13:50;;;;;;;3.63;2.92;;;;;;;12.34;53.64;94242.78;4975292;28;20666;-79
2023/05/05 08:16:16;;;;;;;3.30;2.83;;;;;;;12.40;53.27;94231.66;4975000;28;20039;-77
2023/05/05 08:18:42;;;;;;;3.97;2.85;;;;;;;12.40;54.32;94228.19;4974236;28;20286;-77
2023/05/05 08:21:09;;;;;;;4.30;2.60;;;;;;;12.13;54.59;94231.16;4974521;28;20156;-77
2023/05/05 08:23:35;;;;;;;5.20;2.75;;;;;;;11.70;54.95;94234.53;4964076;28;20485;-77
2023/05/05 08:26:02;;;;;;;5.00;3.80;;;;;;;12.18;54.18;94221.13;4978700;28;20145;-78
2023/05/05 08:28:28;;;;;;;5.40;2.90;;;;;;;12.45;54.42;94217.38;4974146;28;20030;-78
2023/05/05 08:30:54;;;;;;;4.10;3.45;;;;;;;12.21;54.55;94191.19;4974091;28;20049;-80
2023/05/05 08:33:19;;;;;;;5.68;3.20;;;;;;;12.25;53.57;94196.66;4976493;28;20038;-79
2023/05/05 08:35:47;;;;;;;5.57;3.17;;;;;;;12.46;53.88;94202.94;4976295;28;20038;-77
2023/05/05 08:38:12;;;;;;;3.25;2.75;;;;;;;12.67;53.43;94213.75;4973279;28;20596;-79
2023/05/05 08:40:39;;;;;;;5.13;3.28;;;;;;;12.97;54.61;94190.63;4971821;28;20165;-76
2023/05/05 08:43:05;;;;;;;5.07;3.08;;;;;;;13.22;52.33;94213.81;4973888;28;20670;-79
2023/05/05 08:45:31;;;;;;;5.18;3.25;;;;;;;13.30;52.14;94212.97;4975657;28;20497;-78
2023/05/05 08:48:00;;;;;;;7.15;2.95;;;;;;;12.34;51.98;94195.56;4975830;28;20052;-78
2023/05/05 08:50:27;;;;;;;7.05;2.28;;;;;;;12.76;51.21;94207.31;4971358;28;20034;-79
2023/05/05 08:53:16;;;;;;;3.55;2.22;;;;;;;12.60;50.62;94208.91;4979139;28;20765;-77
2023/05/05 08:55:52;;;;;;;7.22;2.30;;;;;;;11.88;51.61;94174.81;4973073;28;20049;-78
2023/05/05 08:58:18;;;;;;;5.72;2.03;;;;;;;11.75;51.14;94167.75;4976413;28;20034;-76
2023/05/05 09:00:45;;;;;;;3.22;2.53;;;;;;;12.51;50.75;94210.78;4974252;28;20029;-79
2023/05/05 09:03:11;;;;;;;5.47;2.58;;;;;;;12.31;51.48;94206.09;4976947;28;20034;-78
2023/05/05 09:05:36;;;;;;;4.65;3.03;;;;;;;12.51;52.38;94194.00;4975984;28;20747;-78
2023/05/05 09:08:05;;;;;;;3.75;2.83;;;;;;;13.16;50.58;94207.06;4975885;28;20026;-79
2023/05/05 09:10:32;;;;;;;4.25;2.92;;;;;;;13.09;51.44;94209.47;4978133;28;20034;-78
2023/05/05 09:12:57;;;;;;;2.92;1.90;;;;;;;12.60;51.37;94208.91;4974483;28;20051;-78
2023/05/05 09:15:23;;;;;;;3.03;2.30;;;;;;;12.95;51.28;94180.28;4974130;28;20046;-80
2023/05/05 09:17:48;;;;;;;2.60;1.80;;;;;;;12.87;50.39;94194.41;4973415;28;20429;-78
2023/05/05 09:20:14;;;;;;;6.47;3.17;;;;;;;12.74;52.10;94204.19;4974758;28;20552;-78
2023/05/05 09:22:45;;;;;;;4.63;3.10;;;;;;;13.14;50.92;94195.94;4973180;28;20037;-80
2023/05/05 09:25:16;;;;;;;4.10;2.95;;;;;;;13.70;50.70;94197.44;4975044;28;20042;-78
2023/05/05 09:27:44;;;;;;;4.15;2.92;;;;;;;13.15;52.38;94202.84;4972678;28;20038;-80
2023/05/05 09:30:14;;;;;;;3.55;2.13;;;;;;;13.47;51.49;94196.09;4972394;28;20462;-80
2023/05/05 09:32:46;;;;;;;4.13;2.40;;;;;;;12.80;53.63;94202.94;4971446;28;20046;-79
2023/05/05 09:35:12;;;;;;;5.85;2.90;;;;;;;12.84;54.26;94198.53;4972463;28;20065;-78
2023/05/05 09:37:37;;;;;;;7.10;3.05;;;;;;;12.58;54.64;94191.63;4962593;28;20114;-79
2023/05/05 09:40:04;;;;;;;4.72;3.10;;;;;;;12.63;54.66;94207.50;4972935;28;20409;-78
2023/05/05 09:42:30;;;;;;;7.00;3.22;;;;;;;12.98;53.59;94198.31;4974593;28;20392;-79
2023/05/05 09:44:56;;;;;;;5.88;3.25;;;;;;;13.54;53.32;94194.53;4972512;28;20034;-79
2023/05/05 09:47:32;;;;;;;3.92;2.60;;;;;;;13.52;54.29;94185.25;4968654;28;20031;-79
2023/05/05 09:49:58;;;;;;;3.60;2.85;;;;;;;13.43;52.83;94193.31;4971243;28;20026;-79
2023/05/05 09:52:23;;;;;;;4.63;2.40;;;;;;;13.48;51.18;94174.44;4970670;28;20065;-78
2023/05/05 09:54:55;;;;;;;3.58;2.58;;;;;;;13.90;53.42;94187.88;4974028;28;20030;-80
2023/05/05 09:57:32;;;;;;;5.45;2.42;;;;;;;14.19;50.30;94172.56;4974033;28;20034;-79
2023/05/05 10:00:00;;;;;;;5.07;2.70;;;;;;;14.42;49.27;94175.69;4973105;28;20077;-79
2023/05/05 10:02:31;;;;;;;4.13;2.90;;;;;;;13.50;51.59;94180.22;4972998;28;20116;-79
2023/05/05 10:05:11;;;;;;;4.78;3.22;;;;;;;13.46;51.82;94181.19;4972989;28;20030;-78
2023/05/05 10:07:38;;;;;;;3.63;2.60;;;;;;;13.89;50.81;94172.94;4972193;28;20481;-79
2023/05/05 10:10:06;;;;;;;3.58;1.90;;;;;;;13.12;51.89;94188.22;4972711;28;20049;-78
2023/05/05 10:12:35;;;;;;;3.42;2.83;;;;;;;13.65;51.43;94189.59;4971964;28;20077;-79
2023/05/05 10:15:02;;;;;;;4.88;2.60;;;;;;;14.24;50.02;94174.25;4973328;28;20519;-80
2023/05/05 10:17:31;;;;;;;5.47;3.22;;;;;;;14.36;50.65;94166.31;4974440;28;20316;-79
2023/05/05 10:19:59;;;;;;;3.97;2.63;;;;;;;14.18;49.15;94170.22;4973899;28;20060;-80
2023/05/05 10:22:26;;;;;;;3.58;2.40;;;;;;;14.24;48.54;94174.25;4970436;28;20354;-79
2023/05/05 10:25:05;;;;;;;16.98;3.00;;;;;;;14.49;48.80;94159.91;4968004;28;20027;-80
2023/05/05 10:27:41;;;;;;;5.43;2.97;;;;;;;14.77;46.90;94170.03;4972799;28;20065;-80
2023/05/05 10:30:10;;;;;;;6.15;2.90;;;;;;;14.47;47.37;94170.13;4973840;28;20046;-79
2023/05/05 10:32:42;;;;;;;4.97;2.58;;;;;;;14.45;47.67;94158.22;4971901;28;20619;-76
2023/05/05 10:35:10;;;;;;;6.28;2.50;;;;;;;14.30;47.44;94166.84;4988504;28;20097;-78
2023/05/05 10:37:40;;;;;;;5.88;2.47;;;;;;;14.31;47.41;94145.09;4972873;28;20042;-80
2023/05/05 10:40:08;;;;;;;2.80;2.30;;;;;;;14.22;47.87;94160.44;4973811;28;20133;-80
2023/05/05 10:42:38;;;;;;;4.10;2.78;;;;;;;14.44;47.02;94152.06;4972921;28;20050;-79
2023/05/05 10:45:04;;;;;;;3.22;2.08;;;;;;;14.70;46.21;94161.78;4971971;28;20524;-79
2023/05/05 10:47:31;;;;;;;3.05;2.30;;;;;;;14.31;48.16;94147.78;4967632;28;20030;-80
2023/05/05 10:50:06;;;;;;;3.22;2.65;;;;;;;14.76;47.68;94163.94;4975429;28;20018;-80
2023/05/05 10:52:57;;;;;;;5.53;2.58;;;;;;;14.82;45.87;94161.81;4985420;28;20054;-81
2023/05/05 10:56:01;;;;;;;7.18;3.92;;;;;;;14.09;49.21;94166.81;4974716;28;20050;-80
2023/05/05 10:58:31;;;;;;;5.10;2.95;;;;;;;13.96;49.71;94167.88;4971092;28;20030;-80
2023/05/05 11:00:57;;;;;;;3.95;2.70;;;;;;;14.36;49.36;94158.28;4974141;28;20132;-81
2023/05/05 11:03:22;;;;;;;4.07;2.88;;;;;;;13.95;48.84;94140.34;4973190;28;20039;-78
2023/05/05 11:06:03;;;;;;;4.80;2.97;;;;;;;14.14;50.79;94159.41;4970235;28;20066;-79
2023/05/05 11:08:32;;;;;;;4.82;3.17;;;;;;;14.33;50.49;94158.94;4970840;28;20332;-80
2023/05/05 11:10:59;;;;;;;4.00;2.25;;;;;;;14.11;49.21;94148.56;4968435;28;20030;-80
2023/05/05 11:13:25;;;;;;;37.28;12.50;;;;;;;14.43;49.70;94150.50;4976193;28;20050;-79
2023/05/05 11:15:52;;;;;;;3.97;2.60;;;;;;;14.12;48.41;94126.06;4978223;28;20520;-79
2023/05/05 11:18:30;;;;;;;3.78;2.38;;;;;;;13.65;50.08;94157.53;4977053;28;20521;-78
2023/05/05 11:20:58;;;;;;;3.35;2.80;;;;;;;13.69;50.54;94156.56;4971442;28;20043;-79
2023/05/05 11:23:27;;;;;;;3.85;3.15;;;;;;;13.75;50.58;94147.25;4976013;28;20089;-78
2023/05/05 11:25:54;;;;;;;2.63;2.42;;;;;;;13.71;50.38;94106.25;4976074;28;20029;-80
2023/05/05 11:28:27;;;;;;;5.00;2.67;;;;;;;13.99;50.79;94151.16;4977467;28;20030;-79
2023/05/05 11:30:55;;;;;;;3.10;2.45;;;;;;;14.25;50.01;94142.94;4976137;28;20033;-79
2023/05/05 11:33:37;;;;;;;3.20;2.40;;;;;;;14.09;50.41;94148.09;4974407;28;20074;-78
2023/05/05 11:36:13;;;;;;;2.92;2.60;;;;;;;14.11;51.43;94141.34;4972815;28;20216;-77
2023/05/05 11:39:08;;;;;;;5.88;2.65;;;;;;;13.95;50.40;94134.22;4974126;28;20061;-77